Main page
METAR-TAF:

METAR-TAF

Airports :

Tiaret, Algeria

Abdelhafid Boussouf Bou Chekif Airport

latitude: 35-15N, longitude: 001-26E, elevation: 1127 m

Current weather observation

The report was made 55 minutes ago, at 03:00 UTC
Wind 6 kt from the South/Southwest
Temperature 12°C
Humidity 94%
Pressure 1023 hPa
Visibility 10 km or more
no clouds below 1500 m and no cumulonimbus

METAR: DAOB 200300Z 21006KT CAVOK 12/11 Q1023

Time: 04:55 (03:55 UTC)

Forecast

The report was made 4 hours and 55 minutes ago, at 23:00 UTC
Forecast valid from 20 at 00 UTC to 20 at 24 UTC
Wind 2 kt from variable directions
Visibility 10 km or more
no clouds below 1500 m and no cumulonimbus
Becoming
from 20 at 15 UTC to 20 at 18 UTC
Wind 10 kt from the East

TAF: DAOB 192300Z 2000/2024 VRB02KT CAVOK BECMG 2015/2018 10010KT

Weather observations and forecasts of more than 4000 airports (METAR and TAF reports).

The available stations are represented by yellow and red dots on the map.

Hover mouse over dot to see the name of the station.

Then click to see weather observations and forecasts.

To change the map : click on the green buttons with a black cross to zoom in, on the green button with a dash to zoom out, or on the green arrows for adjacent maps.


METAR-TAF: